sensor_id;sensor_type;location;lat;lon;timestamp;pressure;altitude;pressure_sealevel;temperature;humidity
48882;BME280;57063;51.406;-2.402;2023-05-19T00:01:41;101655.84;;;12.38;96.60
48882;BME280;57063;51.406;-2.402;2023-05-19T00:04:08;101662.44;;;12.46;96.08
48882;BME280;57063;51.406;-2.402;2023-05-19T00:06:33;101661.41;;;12.50;96.40
48882;BME280;57063;51.406;-2.402;2023-05-19T00:09:04;101663.22;;;12.48;96.29
48882;BME280;57063;51.406;-2.402;2023-05-19T00:11:29;101663.78;;;12.35;97.78
48882;BME280;57063;51.406;-2.402;2023-05-19T00:13:55;101670.97;;;12.29;99.19
48882;BME280;57063;51.406;-2.402;2023-05-19T00:16:21;101663.63;;;12.38;98.21
48882;BME280;57063;51.406;-2.402;2023-05-19T00:18:47;101665.72;;;12.30;99.29
48882;BME280;57063;51.406;-2.402;2023-05-19T00:21:12;101661.34;;;12.32;98.70
48882;BME280;57063;51.406;-2.402;2023-05-19T00:23:38;101661.34;;;12.32;99.38
48882;BME280;57063;51.406;-2.402;2023-05-19T00:26:03;101659.50;;;12.15;100.00
48882;BME280;57063;51.406;-2.402;2023-05-19T00:28:28;101664.97;;;12.28;99.27
48882;BME280;57063;51.406;-2.402;2023-05-19T00:30:53;101663.06;;;12.13;100.00
48882;BME280;57063;51.406;-2.402;2023-05-19T00:33:20;101660.19;;;12.19;100.00
48882;BME280;57063;51.406;-2.402;2023-05-19T00:35:45;101658.09;;;12.27;99.62
48882;BME280;57063;51.406;-2.402;2023-05-19T00:38:10;101653.13;;;12.23;99.08
48882;BME280;57063;51.406;-2.402;2023-05-19T00:40:35;101659.31;;;11.99;100.00
48882;BME280;57063;51.406;-2.402;2023-05-19T00:43:01;101658.28;;;12.04;100.00
48882;BME280;57063;51.406;-2.402;2023-05-19T00:45:27;101657.06;;;11.92;100.00
48882;BME280;57063;51.406;-2.402;2023-05-19T00:47:52;101658.28;;;12.04;100.00
48882;BME280;57063;51.406;-2.402;2023-05-19T00:50:17;101661.44;;;12.10;100.00
48882;BME280;57063;51.406;-2.402;2023-05-19T00:52:43;101662.44;;;12.08;100.00
48882;BME280;57063;51.406;-2.402;2023-05-19T00:55:08;101656.63;;;12.03;100.00
48882;BME280;57063;51.406;-2.402;2023-05-19T00:57:33;101648.06;;;12.01;100.00
48882;BME280;57063;51.406;-2.402;2023-05-19T00:59:59;101658.34;;;12.02;100.00
48882;BME280;57063;51.406;-2.402;2023-05-19T01:02:24;101651.91;;;11.92;100.00
48882;BME280;57063;51.406;-2.402;2023-05-19T01:04:50;101660.19;;;12.00;100.00
48882;BME280;57063;51.406;-2.402;2023-05-19T01:07:15;101645.50;;;12.01;100.00
48882;BME280;57063;51.406;-2.402;2023-05-19T01:09:40;101649.75;;;12.02;100.00
48882;BME280;57063;51.406;-2.402;2023-05-19T01:12:06;101658.22;;;12.05;100.00
48882;BME280;57063;51.406;-2.402;2023-05-19T01:14:31;101651.69;;;11.96;100.00
48882;BME280;57063;51.406;-2.402;2023-05-19T01:16:58;101649.56;;;11.86;100.00
48882;BME280;57063;51.406;-2.402;2023-05-19T01:19:41;101650.59;;;11.82;100.00
48882;BME280;57063;51.406;-2.402;2023-05-19T01:22:21;101654.63;;;11.89;100.00
48882;BME280;57063;51.406;-2.402;2023-05-19T01:25:03;101655.72;;;11.83;100.00
48882;BME280;57063;51.406;-2.402;2023-05-19T01:30:28;101647.38;;;11.76;100.00
48882;BME280;57063;51.406;-2.402;2023-05-19T01:32:56;101650.13;;;11.72;100.00
48882;BME280;57063;51.406;-2.402;2023-05-19T01:35:22;101651.06;;;11.71;100.00
48882;BME280;57063;51.406;-2.402;2023-05-19T01:37:49;101652.59;;;11.75;100.00
48882;BME280;57063;51.406;-2.402;2023-05-19T01:40:15;101655.19;;;11.75;100.00
48882;BME280;57063;51.406;-2.402;2023-05-19T01:42:42;101657.97;;;11.50;100.00
48882;BME280;57063;51.406;-2.402;2023-05-19T01:45:09;101652.34;;;11.40;100.00
48882;BME280;57063;51.406;-2.402;2023-05-19T01:47:35;101654.28;;;11.55;100.00
48882;BME280;57063;51.406;-2.402;2023-05-19T01:50:04;101646.41;;;11.59;100.00
48882;BME280;57063;51.406;-2.402;2023-05-19T01:52:29;101647.56;;;11.51;100.00
48882;BME280;57063;51.406;-2.402;2023-05-19T01:54:54;101646.28;;;11.62;100.00
48882;BME280;57063;51.406;-2.402;2023-05-19T01:57:24;101640.56;;;11.74;100.00
48882;BME280;57063;51.406;-2.402;2023-05-19T02:00:40;101640.19;;;11.63;100.00
48882;BME280;57063;51.406;-2.402;2023-05-19T02:05:17;101636.06;;;11.59;100.00
48882;BME280;57063;51.406;-2.402;2023-05-19T02:07:56;101638.91;;;11.52;100.00
48882;BME280;57063;51.406;-2.402;2023-05-19T02:10:22;101644.56;;;11.61;100.00
48882;BME280;57063;51.406;-2.402;2023-05-19T02:12:51;101637.88;;;11.56;100.00
48882;BME280;57063;51.406;-2.402;2023-05-19T02:15:22;101640.50;;;11.55;100.00
48882;BME280;57063;51.406;-2.402;2023-05-19T02:17:48;101634.50;;;11.54;100.00
48882;BME280;57063;51.406;-2.402;2023-05-19T02:20:16;101634.66;;;11.51;100.00
48882;BME280;57063;51.406;-2.402;2023-05-19T02:22:41;101634.97;;;11.44;100.00
48882;BME280;57063;51.406;-2.402;2023-05-19T02:25:06;101624.63;;;11.44;100.00
48882;BME280;57063;51.406;-2.402;2023-05-19T02:27:32;101621.59;;;11.34;100.00
48882;BME280;57063;51.406;-2.402;2023-05-19T02:29:58;101623.31;;;11.33;100.00
48882;BME280;57063;51.406;-2.402;2023-05-19T02:32:23;101624.38;;;11.29;100.00
48882;BME280;57063;51.406;-2.402;2023-05-19T02:34:48;101621.69;;;11.31;100.00
48882;BME280;57063;51.406;-2.402;2023-05-19T02:37:14;101616.94;;;11.22;100.00
48882;BME280;57063;51.406;-2.402;2023-05-19T02:39:40;101623.78;;;11.01;100.00
48882;BME280;57063;51.406;-2.402;2023-05-19T02:42:05;101633.41;;;10.75;100.00
48882;BME280;57063;51.406;-2.402;2023-05-19T02:44:30;101629.69;;;10.60;100.00
48882;BME280;57063;51.406;-2.402;2023-05-19T02:46:56;101631.47;;;10.58;100.00
48882;BME280;57063;51.406;-2.402;2023-05-19T02:49:21;101631.38;;;10.61;100.00
48882;BME280;57063;51.406;-2.402;2023-05-19T02:51:46;101638.56;;;10.53;100.00
48882;BME280;57063;51.406;-2.402;2023-05-19T02:54:11;101638.00;;;10.68;100.00
48882;BME280;57063;51.406;-2.402;2023-05-19T02:56:37;101637.81;;;10.73;100.00
48882;BME280;57063;51.406;-2.402;2023-05-19T02:59:02;101644.69;;;10.73;100.00
48882;BME280;57063;51.406;-2.402;2023-05-19T03:01:27;101641.88;;;10.79;100.00
48882;BME280;57063;51.406;-2.402;2023-05-19T03:03:52;101640.28;;;10.76;100.00
48882;BME280;57063;51.406;-2.402;2023-05-19T03:06:17;101634.16;;;10.79;100.00
48882;BME280;57063;51.406;-2.402;2023-05-19T03:08:43;101639.34;;;10.77;100.00
48882;BME280;57063;51.406;-2.402;2023-05-19T03:11:08;101629.09;;;10.76;100.00
48882;BME280;57063;51.406;-2.402;2023-05-19T03:13:34;101634.28;;;10.76;100.00
48882;BME280;57063;51.406;-2.402;2023-05-19T03:15:59;101625.97;;;10.67;100.00
48882;BME280;57063;51.406;-2.402;2023-05-19T03:18:25;101633.41;;;10.53;100.00
48882;BME280;57063;51.406;-2.402;2023-05-19T03:20:51;101640.53;;;10.46;100.00
48882;BME280;57063;51.406;-2.402;2023-05-19T03:23:18;101646.75;;;10.17;100.00
48882;BME280;57063;51.406;-2.402;2023-05-19T03:25:43;101639.69;;;10.22;100.00
48882;BME280;57063;51.406;-2.402;2023-05-19T03:28:08;101635.69;;;10.39;100.00
48882;BME280;57063;51.406;-2.402;2023-05-19T03:30:34;101632.63;;;10.27;100.00
48882;BME280;57063;51.406;-2.402;2023-05-19T03:32:59;101627.16;;;10.37;100.00
48882;BME280;57063;51.406;-2.402;2023-05-19T03:35:25;101628.63;;;10.19;100.00
48882;BME280;57063;51.406;-2.402;2023-05-19T03:37:50;101621.66;;;10.21;100.00
48882;BME280;57063;51.406;-2.402;2023-05-19T03:40:16;101618.84;;;10.28;100.00
48882;BME280;57063;51.406;-2.402;2023-05-19T03:42:42;101622.19;;;10.31;100.00
48882;BME280;57063;51.406;-2.402;2023-05-19T03:45:08;101621.16;;;10.11;100.00
48882;BME280;57063;51.406;-2.402;2023-05-19T03:47:33;101627.91;;;10.15;100.00
48882;BME280;57063;51.406;-2.402;2023-05-19T03:49:58;101625.88;;;10.23;100.00
48882;BME280;57063;51.406;-2.402;2023-05-19T03:52:23;101633.28;;;10.09;100.00
48882;BME280;57063;51.406;-2.402;2023-05-19T03:54:49;101621.22;;;9.86;100.00
48882;BME280;57063;51.406;-2.402;2023-05-19T03:57:15;101625.19;;;9.95;100.00
48882;BME280;57063;51.406;-2.402;2023-05-19T03:59:40;101622.81;;;9.90;100.00
48882;BME280;57063;51.406;-2.402;2023-05-19T04:02:06;101632.25;;;9.90;100.00
48882;BME280;57063;51.406;-2.402;2023-05-19T04:04:31;101633.34;;;9.82;100.00
48882;BME280;57063;51.406;-2.402;2023-05-19T04:06:56;101629.59;;;9.93;100.00
48882;BME280;57063;51.406;-2.402;2023-05-19T04:09:21;101631.81;;;10.02;100.00
48882;BME280;57063;51.406;-2.402;2023-05-19T04:11:48;101626.56;;;10.05;100.00
48882;BME280;57063;51.406;-2.402;2023-05-19T04:14:13;101622.88;;;10.12;100.00
48882;BME280;57063;51.406;-2.402;2023-05-19T04:16:38;101628.56;;;10.20;100.00
48882;BME280;57063;51.406;-2.402;2023-05-19T04:19:04;101636.06;;;10.26;100.00
48882;BME280;57063;51.406;-2.402;2023-05-19T04:21:29;101635.91;;;10.33;100.00
48882;BME280;57063;51.406;-2.402;2023-05-19T04:23:54;101630.72;;;10.33;100.00
48882;BME280;57063;51.406;-2.402;2023-05-19T04:26:20;101634.97;;;10.34;100.00
48882;BME280;57063;51.406;-2.402;2023-05-19T04:28:46;101636.00;;;10.30;100.00
48882;BME280;57063;51.406;-2.402;2023-05-19T04:31:12;101642.84;;;10.31;100.00
48882;BME280;57063;51.406;-2.402;2023-05-19T04:33:38;101646.25;;;10.31;100.00
48882;BME280;57063;51.406;-2.402;2023-05-19T04:36:04;101645.38;;;10.32;100.00
48882;BME280;57063;51.406;-2.402;2023-05-19T04:38:32;101648.78;;;10.33;100.00
48882;BME280;57063;51.406;-2.402;2023-05-19T04:40:57;101645.09;;;10.40;100.00
48882;BME280;57063;51.406;-2.402;2023-05-19T04:43:25;101653.91;;;10.34;100.00
48882;BME280;57063;51.406;-2.402;2023-05-19T04:45:51;101657.22;;;10.38;100.00
48882;BME280;57063;51.406;-2.402;2023-05-19T04:48:16;101671.03;;;10.37;100.00
48882;BME280;57063;51.406;-2.402;2023-05-19T04:50:41;101677.84;;;10.38;100.00
48882;BME280;57063;51.406;-2.402;2023-05-19T04:53:13;101667.38;;;10.42;100.00
48882;BME280;57063;51.406;-2.402;2023-05-19T04:55:38;101662.91;;;10.46;100.00
48882;BME280;57063;51.406;-2.402;2023-05-19T04:58:03;101663.16;;;10.40;100.00
48882;BME280;57063;51.406;-2.402;2023-05-19T05:00:28;101656.91;;;10.45;100.00
48882;BME280;57063;51.406;-2.402;2023-05-19T05:02:54;101649.97;;;10.47;100.00
48882;BME280;57063;51.406;-2.402;2023-05-19T05:05:21;101645.75;;;10.45;100.00
48882;BME280;57063;51.406;-2.402;2023-05-19T05:07:46;101637.00;;;10.49;100.00
48882;BME280;57063;51.406;-2.402;2023-05-19T05:10:12;101641.13;;;10.53;100.00
48882;BME280;57063;51.406;-2.402;2023-05-19T05:12:37;101628.00;;;10.59;100.00
48882;BME280;57063;51.406;-2.402;2023-05-19T05:15:02;101629.59;;;10.63;99.59
48882;BME280;57063;51.406;-2.402;2023-05-19T05:17:28;101625.38;;;10.61;99.27
48882;BME280;57063;51.406;-2.402;2023-05-19T05:19:54;101629.84;;;10.56;100.00
48882;BME280;57063;51.406;-2.402;2023-05-19T05:22:19;101627.75;;;10.65;99.56
48882;BME280;57063;51.406;-2.402;2023-05-19T05:24:45;101623.81;;;10.57;100.00
48882;BME280;57063;51.406;-2.402;2023-05-19T05:27:10;101632.16;;;10.63;100.00
48882;BME280;57063;51.406;-2.402;2023-05-19T05:29:35;101633.88;;;10.63;100.00
48882;BME280;57063;51.406;-2.402;2023-05-19T05:32:01;101628.72;;;10.63;100.00
48882;BME280;57063;51.406;-2.402;2023-05-19T05:34:26;101626.09;;;10.64;100.00
48882;BME280;57063;51.406;-2.402;2023-05-19T05:36:51;101614.84;;;10.65;100.00
48882;BME280;57063;51.406;-2.402;2023-05-19T05:39:17;101613.97;;;10.66;99.86
48882;BME280;57063;51.406;-2.402;2023-05-19T05:41:42;101612.53;;;10.59;100.00
48882;BME280;57063;51.406;-2.402;2023-05-19T05:44:07;101611.22;;;10.71;100.00
48882;BME280;57063;51.406;-2.402;2023-05-19T05:46:32;101617.91;;;10.75;99.87
48882;BME280;57063;51.406;-2.402;2023-05-19T05:48:58;101620.44;;;10.77;99.84
48882;BME280;57063;51.406;-2.402;2023-05-19T05:51:23;101623.50;;;10.64;100.00
48882;BME280;57063;51.406;-2.402;2023-05-19T05:53:51;101621.28;;;10.55;100.00
48882;BME280;57063;51.406;-2.402;2023-05-19T05:56:16;101623.72;;;10.58;100.00
48882;BME280;57063;51.406;-2.402;2023-05-19T05:58:42;101623.38;;;10.67;100.00
48882;BME280;57063;51.406;-2.402;2023-05-19T06:01:08;101622.53;;;10.67;100.00
48882;BME280;57063;51.406;-2.402;2023-05-19T06:03:41;101633.97;;;10.83;100.00
48882;BME280;57063;51.406;-2.402;2023-05-19T06:06:09;101638.28;;;10.83;100.00
48882;BME280;57063;51.406;-2.402;2023-05-19T06:08:34;101637.41;;;11.04;100.00
48882;BME280;57063;51.406;-2.402;2023-05-19T06:10:59;101638.31;;;11.25;98.74
48882;BME280;57063;51.406;-2.402;2023-05-19T06:13:25;101642.00;;;11.40;96.50
48882;BME280;57063;51.406;-2.402;2023-05-19T06:15:50;101640.69;;;11.50;96.54
48882;BME280;57063;51.406;-2.402;2023-05-19T06:18:16;101642.66;;;11.66;95.90
48882;BME280;57063;51.406;-2.402;2023-05-19T06:20:41;101647.16;;;11.81;92.98
48882;BME280;57063;51.406;-2.402;2023-05-19T06:23:06;101648.59;;;12.66;89.21
48882;BME280;57063;51.406;-2.402;2023-05-19T06:25:32;101645.78;;;14.59;77.00
48882;BME280;57063;51.406;-2.402;2023-05-19T06:27:57;101650.78;;;15.82;68.91
48882;BME280;57063;51.406;-2.402;2023-05-19T06:30:22;101648.47;;;16.21;67.24
48882;BME280;57063;51.406;-2.402;2023-05-19T06:32:47;101647.59;;;16.76;62.51
48882;BME280;57063;51.406;-2.402;2023-05-19T06:35:13;101645.09;;;17.42;60.03
48882;BME280;57063;51.406;-2.402;2023-05-19T06:37:38;101641.53;;;17.94;57.63
48882;BME280;57063;51.406;-2.402;2023-05-19T06:40:03;101632.16;;;18.65;55.50
48882;BME280;57063;51.406;-2.402;2023-05-19T06:42:29;101634.25;;;17.61;56.35
48882;BME280;57063;51.406;-2.402;2023-05-19T06:44:55;101634.06;;;18.63;56.04
48882;BME280;57063;51.406;-2.402;2023-05-19T06:47:20;101629.47;;;19.37;52.50
48882;BME280;57063;51.406;-2.402;2023-05-19T06:49:45;101638.88;;;19.40;52.15
48882;BME280;57063;51.406;-2.402;2023-05-19T06:52:14;101635.38;;;19.28;52.21
48882;BME280;57063;51.406;-2.402;2023-05-19T06:54:39;101637.91;;;19.30;52.38
48882;BME280;57063;51.406;-2.402;2023-05-19T06:57:04;101638.94;;;19.96;50.56
48882;BME280;57063;51.406;-2.402;2023-05-19T06:59:30;101638.28;;;20.49;49.52
48882;BME280;57063;51.406;-2.402;2023-05-19T07:01:55;101646.16;;;20.38;48.51
48882;BME280;57063;51.406;-2.402;2023-05-19T07:04:21;101649.38;;;20.85;48.97
48882;BME280;57063;51.406;-2.402;2023-05-19T07:06:46;101657.50;;;20.16;49.31
48882;BME280;57063;51.406;-2.402;2023-05-19T07:09:11;101666.09;;;20.06;51.20
48882;BME280;57063;51.406;-2.402;2023-05-19T07:11:37;101661.34;;;20.00;49.93
48882;BME280;57063;51.406;-2.402;2023-05-19T07:14:02;101654.88;;;20.04;49.81
48882;BME280;57063;51.406;-2.402;2023-05-19T07:16:27;101663.47;;;19.84;49.52
48882;BME280;57063;51.406;-2.402;2023-05-19T07:18:52;101671.81;;;20.34;49.84
48882;BME280;57063;51.406;-2.402;2023-05-19T07:21:18;101678.00;;;20.22;49.47
48882;BME280;57063;51.406;-2.402;2023-05-19T07:23:43;101679.31;;;20.39;49.52
48882;BME280;57063;51.406;-2.402;2023-05-19T07:26:08;101681.59;;;20.09;50.44
48882;BME280;57063;51.406;-2.402;2023-05-19T07:28:33;101681.28;;;20.69;49.53
48882;BME280;57063;51.406;-2.402;2023-05-19T07:30:59;101676.22;;;20.11;51.32
48882;BME280;57063;51.406;-2.402;2023-05-19T07:33:24;101674.69;;;20.20;50.68
48882;BME280;57063;51.406;-2.402;2023-05-19T07:35:51;101672.06;;;19.86;50.39
48882;BME280;57063;51.406;-2.402;2023-05-19T07:38:16;101683.00;;;20.36;50.36
48882;BME280;57063;51.406;-2.402;2023-05-19T07:40:41;101677.47;;;21.05;48.99
48882;BME280;57063;51.406;-2.402;2023-05-19T07:43:06;101682.91;;;20.92;49.45
48882;BME280;57063;51.406;-2.402;2023-05-19T07:45:32;101679.94;;;19.97;51.27
48882;BME280;57063;51.406;-2.402;2023-05-19T07:47:57;101682.28;;;20.34;50.49
48882;BME280;57063;51.406;-2.402;2023-05-19T07:50:22;101680.50;;;20.89;49.71
48882;BME280;57063;51.406;-2.402;2023-05-19T07:52:47;101684.91;;;20.23;50.44
48882;BME280;57063;51.406;-2.402;2023-05-19T07:55:13;101687.88;;;20.63;50.07
48882;BME280;57063;51.406;-2.402;2023-05-19T07:57:38;101683.66;;;21.04;49.40
48882;BME280;57063;51.406;-2.402;2023-05-19T08:00:04;101690.53;;;21.16;48.75
48882;BME280;57063;51.406;-2.402;2023-05-19T08:02:33;101686.34;;;21.14;48.88
48882;BME280;57063;51.406;-2.402;2023-05-19T08:04:59;101685.94;;;21.30;48.70
48882;BME280;57063;51.406;-2.402;2023-05-19T08:07:24;101687.34;;;21.76;48.43
48882;BME280;57063;51.406;-2.402;2023-05-19T08:09:50;101681.22;;;21.45;47.88
48882;BME280;57063;51.406;-2.402;2023-05-19T08:12:15;101691.00;;;20.89;48.71
48882;BME280;57063;51.406;-2.402;2023-05-19T08:14:40;101697.00;;;21.33;48.79
48882;BME280;57063;51.406;-2.402;2023-05-19T08:17:05;101695.91;;;21.36;47.42
48882;BME280;57063;51.406;-2.402;2023-05-19T08:19:30;101689.16;;;20.69;48.71
48882;BME280;57063;51.406;-2.402;2023-05-19T08:21:56;101694.06;;;20.94;50.00
48882;BME280;57063;51.406;-2.402;2023-05-19T08:24:22;101697.22;;;21.84;47.10
48882;BME280;57063;51.406;-2.402;2023-05-19T08:26:47;101694.75;;;21.61;46.13
48882;BME280;57063;51.406;-2.402;2023-05-19T08:29:12;101678.81;;;22.64;46.08
48882;BME280;57063;51.406;-2.402;2023-05-19T08:31:37;101688.47;;;22.44;45.92
48882;BME280;57063;51.406;-2.402;2023-05-19T08:34:03;101686.66;;;22.45;46.09
48882;BME280;57063;51.406;-2.402;2023-05-19T08:36:28;101684.47;;;22.70;46.44
48882;BME280;57063;51.406;-2.402;2023-05-19T08:38:54;101683.25;;;22.74;45.57
48882;BME280;57063;51.406;-2.402;2023-05-19T08:41:20;101687.88;;;22.41;46.24
48882;BME280;57063;51.406;-2.402;2023-05-19T08:43:45;101683.50;;;22.11;48.06
48882;BME280;57063;51.406;-2.402;2023-05-19T08:46:12;101674.59;;;22.33;45.34
48882;BME280;57063;51.406;-2.402;2023-05-19T08:48:37;101669.13;;;22.94;44.92
48882;BME280;57063;51.406;-2.402;2023-05-19T08:51:10;101666.63;;;22.93;44.86
48882;BME280;57063;51.406;-2.402;2023-05-19T08:53:38;101672.44;;;22.67;45.57
48882;BME280;57063;51.406;-2.402;2023-05-19T08:56:05;101660.06;;;22.48;45.34
48882;BME280;57063;51.406;-2.402;2023-05-19T08:58:38;101655.78;;;22.47;46.54
48882;BME280;57063;51.406;-2.402;2023-05-19T09:01:06;101653.06;;;22.58;44.91
48882;BME280;57063;51.406;-2.402;2023-05-19T09:03:31;101648.31;;;23.30;45.85
48882;BME280;57063;51.406;-2.402;2023-05-19T09:06:02;101651.06;;;22.41;44.78
48882;BME280;57063;51.406;-2.402;2023-05-19T09:08:28;101651.53;;;22.85;45.16
48882;BME280;57063;51.406;-2.402;2023-05-19T09:10:53;101644.31;;;23.26;44.53
48882;BME280;57063;51.406;-2.402;2023-05-19T09:13:18;101640.63;;;24.49;43.45
48882;BME280;57063;51.406;-2.402;2023-05-19T09:15:44;101647.97;;;24.27;43.88
48882;BME280;57063;51.406;-2.402;2023-05-19T09:18:10;101644.75;;;24.06;43.93
48882;BME280;57063;51.406;-2.402;2023-05-19T09:20:36;101644.28;;;24.38;43.61
48882;BME280;57063;51.406;-2.402;2023-05-19T09:23:03;101646.31;;;24.26;42.17
48882;BME280;57063;51.406;-2.402;2023-05-19T09:25:29;101645.94;;;25.11;41.16
48882;BME280;57063;51.406;-2.402;2023-05-19T09:27:55;101640.97;;;24.08;42.67
48882;BME280;57063;51.406;-2.402;2023-05-19T09:30:21;101646.81;;;24.75;42.17
48882;BME280;57063;51.406;-2.402;2023-05-19T09:32:47;101638.69;;;23.96;41.81
48882;BME280;57063;51.406;-2.402;2023-05-19T09:35:13;101632.09;;;24.55;41.69
48882;BME280;57063;51.406;-2.402;2023-05-19T09:37:41;101638.38;;;24.54;42.15
48882;BME280;57063;51.406;-2.402;2023-05-19T09:40:09;101643.19;;;24.76;41.73
48882;BME280;57063;51.406;-2.402;2023-05-19T09:42:38;101639.66;;;24.50;42.12
48882;BME280;57063;51.406;-2.402;2023-05-19T09:45:04;101639.47;;;24.87;40.81
48882;BME280;57063;51.406;-2.402;2023-05-19T09:50:00;101642.63;;;25.27;39.67
48882;BME280;57063;51.406;-2.402;2023-05-19T09:52:25;101645.78;;;25.12;40.21
48882;BME280;57063;51.406;-2.402;2023-05-19T09:54:51;101634.03;;;25.25;40.03
48882;BME280;57063;51.406;-2.402;2023-05-19T09:57:17;101646.47;;;24.43;41.72
48882;BME280;57063;51.406;-2.402;2023-05-19T09:59:49;101635.06;;;24.52;41.47
48882;BME280;57063;51.406;-2.402;2023-05-19T10:02:15;101640.56;;;24.59;41.43
48882;BME280;57063;51.406;-2.402;2023-05-19T10:04:42;101639.09;;;24.82;40.01
48882;BME280;57063;51.406;-2.402;2023-05-19T10:07:08;101635.06;;;25.32;40.30
48882;BME280;57063;51.406;-2.402;2023-05-19T10:09:34;101628.56;;;25.52;40.56
48882;BME280;57063;51.406;-2.402;2023-05-19T10:12:00;101632.59;;;25.65;38.95
48882;BME280;57063;51.406;-2.402;2023-05-19T10:14:27;101632.81;;;26.14;39.50
48882;BME280;57063;51.406;-2.402;2023-05-19T10:16:53;101629.50;;;25.43;40.31
48882;BME280;57063;51.406;-2.402;2023-05-19T10:19:19;101625.00;;;25.35;40.24
48882;BME280;57063;51.406;-2.402;2023-05-19T10:21:45;101619.88;;;26.02;38.33
48882;BME280;57063;51.406;-2.402;2023-05-19T10:24:10;101630.47;;;25.34;40.07
48882;BME280;57063;51.406;-2.402;2023-05-19T10:26:36;101628.31;;;24.58;41.10
48882;BME280;57063;51.406;-2.402;2023-05-19T10:29:02;101629.03;;;24.77;41.01
48882;BME280;57063;51.406;-2.402;2023-05-19T10:31:28;101625.81;;;25.36;40.22
48882;BME280;57063;51.406;-2.402;2023-05-19T10:37:04;101608.53;;;25.76;41.08
48882;BME280;57063;51.406;-2.402;2023-05-19T10:39:34;101615.44;;;25.77;40.16
48882;BME280;57063;51.406;-2.402;2023-05-19T10:47:06;101611.16;;;25.41;40.80
48882;BME280;57063;51.406;-2.402;2023-05-19T10:49:35;101603.69;;;25.37;39.42
48882;BME280;57063;51.406;-2.402;2023-05-19T10:52:00;101603.53;;;24.94;41.01
48882;BME280;57063;51.406;-2.402;2023-05-19T10:54:38;101605.41;;;24.76;40.51
48882;BME280;57063;51.406;-2.402;2023-05-19T10:57:04;101602.31;;;25.25;41.88
48882;BME280;57063;51.406;-2.402;2023-05-19T10:59:32;101592.53;;;25.17;41.14
48882;BME280;57063;51.406;-2.402;2023-05-19T11:02:01;101592.19;;;25.46;39.33
48882;BME280;57063;51.406;-2.402;2023-05-19T11:04:46;101591.16;;;26.24;37.25
48882;BME280;57063;51.406;-2.402;2023-05-19T11:07:21;101590.00;;;26.26;37.03
48882;BME280;57063;51.406;-2.402;2023-05-19T11:09:49;101586.41;;;25.85;38.79
48882;BME280;57063;51.406;-2.402;2023-05-19T11:12:18;101585.19;;;26.22;38.30
48882;BME280;57063;51.406;-2.402;2023-05-19T11:14:43;101583.75;;;25.85;38.02
48882;BME280;57063;51.406;-2.402;2023-05-19T11:17:11;101587.81;;;26.05;37.64
48882;BME280;57063;51.406;-2.402;2023-05-19T11:19:37;101588.56;;;25.47;39.00
48882;BME280;57063;51.406;-2.402;2023-05-19T11:22:12;101580.63;;;24.05;40.98
48882;BME280;57063;51.406;-2.402;2023-05-19T11:29:44;101576.84;;;25.50;39.67
48882;BME280;57063;51.406;-2.402;2023-05-19T11:32:10;101584.75;;;25.41;39.49
48882;BME280;57063;51.406;-2.402;2023-05-19T11:34:36;101588.47;;;25.05;40.74
48882;BME280;57063;51.406;-2.402;2023-05-19T11:37:02;101581.63;;;25.46;40.96
48882;BME280;57063;51.406;-2.402;2023-05-19T11:39:28;101582.13;;;25.50;38.42
48882;BME280;57063;51.406;-2.402;2023-05-19T11:41:56;101571.03;;;26.56;36.74
48882;BME280;57063;51.406;-2.402;2023-05-19T11:44:22;101576.91;;;27.23;38.32
48882;BME280;57063;51.406;-2.402;2023-05-19T11:46:47;101566.75;;;26.63;37.45
48882;BME280;57063;51.406;-2.402;2023-05-19T11:49:12;101569.34;;;26.96;36.82
48882;BME280;57063;51.406;-2.402;2023-05-19T11:51:39;101566.59;;;27.84;35.69
48882;BME280;57063;51.406;-2.402;2023-05-19T11:54:06;101564.63;;;27.70;36.21
48882;BME280;57063;51.406;-2.402;2023-05-19T11:56:32;101570.53;;;25.85;38.19
48882;BME280;57063;51.406;-2.402;2023-05-19T11:58:57;101569.13;;;25.65;38.67
48882;BME280;57063;51.406;-2.402;2023-05-19T12:01:23;101563.81;;;25.22;40.58
48882;BME280;57063;51.406;-2.402;2023-05-19T12:03:50;101562.03;;;25.31;38.22
48882;BME280;57063;51.406;-2.402;2023-05-19T12:06:16;101564.59;;;26.58;38.27
48882;BME280;57063;51.406;-2.402;2023-05-19T12:08:41;101558.56;;;26.15;38.30
48882;BME280;57063;51.406;-2.402;2023-05-19T12:11:06;101566.88;;;25.78;37.90
48882;BME280;57063;51.406;-2.402;2023-05-19T12:13:32;101562.00;;;25.23;39.99
48882;BME280;57063;51.406;-2.402;2023-05-19T12:16:00;101566.19;;;24.63;39.96
48882;BME280;57063;51.406;-2.402;2023-05-19T12:18:30;101562.78;;;24.53;41.07
48882;BME280;57063;51.406;-2.402;2023-05-19T12:21:00;101563.78;;;23.88;42.06
48882;BME280;57063;51.406;-2.402;2023-05-19T12:23:25;101569.78;;;24.08;42.46
48882;BME280;57063;51.406;-2.402;2023-05-19T12:25:51;101571.00;;;24.32;42.58
48882;BME280;57063;51.406;-2.402;2023-05-19T12:28:17;101564.16;;;23.66;42.83
48882;BME280;57063;51.406;-2.402;2023-05-19T12:30:46;101563.53;;;22.97;44.43
48882;BME280;57063;51.406;-2.402;2023-05-19T12:33:11;101565.03;;;23.57;43.30
48882;BME280;57063;51.406;-2.402;2023-05-19T12:35:38;101561.78;;;23.35;44.64
48882;BME280;57063;51.406;-2.402;2023-05-19T12:38:05;101565.50;;;23.80;42.56
48882;BME280;57063;51.406;-2.402;2023-05-19T12:40:30;101557.81;;;24.50;40.85
48882;BME280;57063;51.406;-2.402;2023-05-19T12:42:56;101562.53;;;24.82;41.83
48882;BME280;57063;51.406;-2.402;2023-05-19T12:45:22;101553.63;;;24.11;40.90
48882;BME280;57063;51.406;-2.402;2023-05-19T12:47:50;101559.63;;;24.67;43.08
48882;BME280;57063;51.406;-2.402;2023-05-19T12:50:16;101568.03;;;24.89;41.31
48882;BME280;57063;51.406;-2.402;2023-05-19T12:52:48;101559.13;;;25.16;42.44